Time;durP1;ratioP1;P1;durP2;ratioP2;P2;SDS_P1;SDS_P2;PMS_P1;PMS_P2;Temp;Humidity;BMP_temperature;BMP_pressure;BME280_temperature;BME280_humidity;BME280_pressure;Samples;Min_cycle;Max_cycle;Signal;HPM_P1;HPM_P2
2022/04/21 00:00:28;;;;;;;9.57;5.00;;;11.20;93.70;;;;;;5033219;28;20041;-78
2022/04/21 00:02:54;;;;;;;7.97;4.47;;;11.10;93.80;;;;;;5034069;28;20132;-78
2022/04/21 00:05:19;;;;;;;12.98;5.18;;;11.10;93.90;;;;;;5033177;28;20053;-78
2022/04/21 00:07:48;;;;;;;10.77;5.18;;;11.10;93.90;;;;;;5016694;28;20049;-78
2022/04/21 00:10:14;;;;;;;9.55;5.15;;;11.10;94.00;;;;;;5033052;28;20064;-78
2022/04/21 00:12:40;;;;;;;9.48;4.78;;;11.10;94.00;;;;;;5032686;28;20099;-78
2022/04/21 00:15:07;;;;;;;12.75;4.95;;;11.10;94.00;;;;;;5032678;28;20049;-78
2022/04/21 00:17:33;;;;;;;14.43;5.55;;;11.00;94.20;;;;;;5033000;28;20046;-78
2022/04/21 00:19:59;;;;;;;11.35;5.70;;;11.00;94.20;;;;;;5032522;28;20075;-78
2022/04/21 00:25:11;;;;;;;11.55;5.45;;;11.00;94.50;;;;;;5032925;28;20091;-78
2022/04/21 00:27:43;;;;;;;9.27;5.55;;;11.00;94.40;;;;;;5032870;28;20445;-78
2022/04/21 00:30:11;;;;;;;9.93;6.38;;;11.00;94.50;;;;;;5032710;28;20045;-78
2022/04/21 00:32:38;;;;;;;11.35;6.80;;;11.00;94.60;;;;;;5016464;28;20049;-78
2022/04/21 00:35:05;;;;;;;10.60;6.10;;;11.00;94.60;;;;;;5032772;28;20440;-78
2022/04/21 00:37:31;;;;;;;11.27;6.18;;;11.00;94.70;;;;;;5032681;28;20046;-78
2022/04/21 00:39:57;;;;;;;13.38;6.85;;;11.00;94.70;;;;;;5032611;28;20053;-78
2022/04/21 00:42:23;;;;;;;13.38;6.72;;;11.00;94.80;;;;;;5032666;28;20045;-78
2022/04/21 00:44:50;;;;;;;13.30;6.53;;;11.00;94.80;;;;;;5032678;28;20081;-78
2022/04/21 00:47:19;;;;;;;11.55;6.53;;;11.00;94.90;;;;;;5032546;28;20128;-78
2022/04/21 00:49:46;;;;;;;13.02;6.90;;;10.90;94.90;;;;;;5032177;28;20095;-78
2022/04/21 00:52:13;;;;;;;14.48;7.35;;;11.00;95.00;;;;;;5032501;28;20496;-78
2022/04/21 00:54:39;;;;;;;13.15;7.05;;;11.00;95.00;;;;;;5032460;28;20049;-78
2022/04/21 00:57:06;;;;;;;14.48;7.18;;;11.00;95.10;;;;;;5032571;28;20107;-78
2022/04/21 00:59:33;;;;;;;15.32;6.80;;;11.00;95.10;;;;;;5032444;28;20061;-78
2022/04/21 01:04:48;;;;;;;14.48;7.72;;;10.90;95.20;;;;;;5032447;28;20143;-78
2022/04/21 01:07:13;;;;;;;11.52;7.03;;;11.00;95.20;;;;;;5016666;28;20190;-78
2022/04/21 01:09:39;;;;;;;13.82;7.40;;;11.20;95.20;;;;;;5032427;28;20055;-79
2022/04/21 01:12:09;;;;;;;15.93;8.07;;;11.30;95.20;;;;;;5032385;28;20065;-78
2022/04/21 01:14:39;;;;;;;14.82;7.93;;;11.40;95.20;;;;;;5032131;28;20057;-78
2022/04/21 01:17:06;;;;;;;15.50;8.88;;;11.30;95.10;;;;;;5016345;28;20115;-79
2022/04/21 01:19:32;;;;;;;15.05;7.95;;;11.40;95.10;;;;;;5015439;28;20525;-78
2022/04/21 01:21:58;;;;;;;12.77;7.60;;;11.40;95.20;;;;;;5032237;28;20047;-78
2022/04/21 01:24:26;;;;;;;12.65;7.35;;;11.40;95.10;;;;;;5032258;28;20114;-78
2022/04/21 01:26:54;;;;;;;12.23;7.32;;;11.30;95.10;;;;;;5032270;28;20053;-78
2022/04/21 01:29:20;;;;;;;10.93;6.72;;;11.20;95.10;;;;;;5032390;28;20049;-78
2022/04/21 01:31:46;;;;;;;12.35;7.10;;;11.00;95.10;;;;;;5032106;28;20056;-78
2022/04/21 01:34:11;;;;;;;15.82;7.55;;;10.90;95.10;;;;;;5032549;28;20240;-78
2022/04/21 01:41:08;;;;;;;15.48;7.45;;;10.80;95.20;;;;;;5032414;28;20132;-78
2022/04/21 01:42:15;;;;;;;12.55;7.50;;;10.50;95.30;;;;;;5031992;28;20049;-78
2022/04/21 01:44:42;;;;;;;13.95;7.75;;;10.40;95.50;;;;;;5032091;28;20049;-78
2022/04/21 01:47:08;;;;;;;13.80;7.85;;;10.20;95.60;;;;;;5032002;28;20085;-78
2022/04/21 01:49:34;;;;;;;16.23;8.07;;;10.20;95.80;;;;;;5015281;28;20163;-78
2022/04/21 01:51:59;;;;;;;14.63;8.10;;;10.20;95.80;;;;;;5031974;28;20435;-78
2022/04/21 01:54:25;;;;;;;15.00;8.27;;;10.20;95.90;;;;;;5035594;28;20088;-78
2022/04/21 01:56:51;;;;;;;15.88;8.95;;;10.10;95.80;;;;;;5035308;28;20045;-78
2022/04/21 01:59:16;;;;;;;19.02;9.38;;;10.10;95.80;;;;;;5035369;28;20096;-78
2022/04/21 02:01:42;;;;;;;16.75;7.95;;;10.10;95.90;;;;;;5035576;28;20037;-78
2022/04/21 02:04:08;;;;;;;16.52;8.57;;;10.10;96.00;;;;;;5018655;28;20076;-78
2022/04/21 02:06:33;;;;;;;15.68;9.18;;;10.10;96.00;;;;;;5035344;28;20443;-78
2022/04/21 02:08:59;;;;;;;17.23;8.90;;;10.10;96.10;;;;;;5034966;28;20056;-78
2022/04/21 02:11:25;;;;;;;16.65;8.68;;;10.00;96.00;;;;;;5035125;28;20057;-78
2022/04/21 02:13:52;;;;;;;15.13;8.50;;;9.90;96.10;;;;;;5035298;28;20045;-78
2022/04/21 02:16:18;;;;;;;14.82;8.93;;;9.90;96.00;;;;;;5002101;28;20053;-78
2022/04/21 02:18:43;;;;;;;18.38;9.27;;;9.80;96.20;;;;;;5034767;28;20045;-78
2022/04/21 02:21:09;;;;;;;17.08;9.45;;;9.80;96.30;;;;;;5034999;28;20404;-78
2022/04/21 02:23:35;;;;;;;16.02;10.00;;;9.70;96.40;;;;;;5034898;28;20394;-77
2022/04/21 02:26:00;;;;;;;17.85;9.18;;;9.70;96.40;;;;;;5034898;28;20477;-79
2022/04/21 02:28:26;;;;;;;18.33;9.73;;;9.70;96.50;;;;;;5034999;28;20171;-78
2022/04/21 02:30:52;;;;;;;20.52;10.68;;;9.70;96.60;;;;;;5018414;28;20198;-78
2022/04/21 02:33:17;;;;;;;16.90;9.48;;;9.80;96.40;;;;;;5034940;28;20053;-78
2022/04/21 02:35:43;;;;;;;16.42;9.82;;;9.90;96.50;;;;;;5034790;28;20413;-78
2022/04/21 02:38:09;;;;;;;17.42;9.32;;;9.90;96.40;;;;;;5034879;28;20064;-78
2022/04/21 02:40:34;;;;;;;19.00;10.35;;;9.80;96.40;;;;;;5034695;28;20076;-78
2022/04/21 02:43:00;;;;;;;18.30;10.05;;;9.80;96.50;;;;;;5034530;28;20123;-78
2022/04/21 02:45:26;;;;;;;18.60;10.45;;;9.80;96.60;;;;;;5034702;28;20045;-78
2022/04/21 02:47:52;;;;;;;18.40;10.77;;;9.70;96.60;;;;;;5034499;28;20144;-78
2022/04/21 02:50:18;;;;;;;17.75;10.20;;;9.80;96.80;;;;;;5017922;28;20045;-78
2022/04/21 02:52:44;;;;;;;18.25;10.60;;;9.80;96.90;;;;;;5034081;28;20488;-78
2022/04/21 02:57:56;;;;;;;19.70;10.87;;;9.90;96.90;;;;;;5034547;28;20063;-78
2022/04/21 03:00:22;;;;;;;19.67;10.52;;;9.90;96.90;;;;;;5034368;28;20423;-78
2022/04/21 03:02:48;;;;;;;16.38;10.25;;;10.00;96.90;;;;;;5034217;28;20083;-78
2022/04/21 03:05:14;;;;;;;20.20;10.57;;;10.10;96.90;;;;;;5033150;28;20038;-78
2022/04/21 03:07:40;;;;;;;17.85;10.07;;;10.30;96.80;;;;;;5034090;28;20365;-78
2022/04/21 03:10:06;;;;;;;17.83;9.52;;;10.30;96.70;;;;;;5034172;28;20052;-78
2022/04/21 03:12:32;;;;;;;17.13;9.77;;;10.20;96.80;;;;;;5034127;28;20049;-78
2022/04/21 03:14:57;;;;;;;17.77;8.70;;;10.40;96.60;;;;;;5033960;28;20061;-78
2022/04/21 03:17:24;;;;;;;18.95;9.50;;;10.30;96.70;;;;;;5034037;28;20076;-78
2022/04/21 03:19:50;;;;;;;17.55;9.65;;;10.30;96.50;;;;;;5033619;28;20136;-78
2022/04/21 03:25:07;;;;;;;15.50;8.68;;;10.30;96.70;;;;;;5033933;28;20187;-78
2022/04/21 03:27:33;;;;;;;15.18;8.30;;;10.30;96.50;;;;;;5001020;28;20102;-78
2022/04/21 03:30:00;;;;;;;17.40;8.13;;;10.30;96.40;;;;;;5033480;28;20052;-78
2022/04/21 03:32:26;;;;;;;15.38;8.77;;;10.10;96.50;;;;;;5033737;28;20064;-78
2022/04/21 03:34:53;;;;;;;12.50;7.85;;;10.10;96.40;;;;;;5033667;28;20049;-79
2022/04/21 03:37:20;;;;;;;13.15;7.93;;;10.10;96.40;;;;;;5033634;28;20061;-78
2022/04/21 03:39:46;;;;;;;13.70;7.63;;;10.00;96.50;;;;;;5033684;28;20045;-78
2022/04/21 03:42:23;;;;;;;16.67;8.55;;;10.00;96.60;;;;;;5033513;28;20049;-78
2022/04/21 03:44:49;;;;;;;13.20;8.00;;;10.10;96.50;;;;;;5033753;28;20391;-78
2022/04/21 03:47:15;;;;;;;15.32;9.07;;;10.00;96.30;;;;;;5033448;28;20444;-79
2022/04/21 03:49:41;;;;;;;13.10;7.85;;;10.00;96.30;;;;;;5033200;28;20049;-78
2022/04/21 03:52:09;;;;;;;16.50;8.15;;;10.00;96.40;;;;;;5033527;28;20093;-79
2022/04/21 03:54:35;;;;;;;14.32;7.93;;;9.90;96.30;;;;;;5017380;28;20447;-78
2022/04/21 03:57:01;;;;;;;13.70;7.32;;;9.90;96.30;;;;;;5033157;28;20045;-78
2022/04/21 03:59:27;;;;;;;16.35;8.27;;;10.10;96.40;;;;;;5033244;28;20049;-78
2022/04/21 04:01:52;;;;;;;16.45;8.55;;;10.20;96.30;;;;;;5033142;28;20044;-78
2022/04/21 04:04:18;;;;;;;13.95;8.13;;;10.30;96.10;;;;;;5033153;28;20088;-78
2022/04/21 04:12:34;;;;;;;13.85;7.57;;;10.20;96.10;;;;;;4989559;28;20057;-78
2022/04/21 04:15:01;;;;;;;13.48;7.28;;;10.20;96.00;;;;;;5032399;28;20068;-78
2022/04/21 04:17:27;;;;;;;15.52;8.00;;;10.10;96.20;;;;;;5033122;28;20140;-78
2022/04/21 04:19:53;;;;;;;12.00;7.80;;;10.00;96.00;;;;;;5032475;28;20128;-78
2022/04/21 04:22:19;;;;;;;13.68;7.88;;;10.00;96.20;;;;;;5032971;28;20471;-77
2022/04/21 04:24:45;;;;;;;17.25;8.45;;;9.90;96.20;;;;;;5032870;28;20140;-78
2022/04/21 04:27:10;;;;;;;14.07;8.10;;;10.00;96.20;;;;;;5032793;28;20045;-78
2022/04/21 04:29:36;;;;;;;17.02;7.93;;;9.90;96.40;;;;;;5032947;28;20500;-78
2022/04/21 04:32:02;;;;;;;14.68;8.20;;;10.00;96.30;;;;;;5032743;28;20447;-78
2022/04/21 04:34:27;;;;;;;13.85;8.30;;;10.00;96.30;;;;;;5032522;28;20080;-78
2022/04/21 04:36:53;;;;;;;18.67;8.68;;;10.00;96.20;;;;;;5032714;28;20057;-79
2022/04/21 04:39:19;;;;;;;12.15;7.47;;;9.90;96.30;;;;;;5032566;28;20052;-78
2022/04/21 04:44:29;;;;;;;16.77;8.25;;;9.90;96.30;;;;;;5032569;28;20456;-78
2022/04/21 04:46:56;;;;;;;16.35;9.30;;;9.90;96.30;;;;;;5032303;28;20092;-78
2022/04/21 04:49:23;;;;;;;15.68;8.50;;;9.90;96.40;;;;;;5031742;28;20084;-79
2022/04/21 04:51:49;;;;;;;18.02;8.60;;;9.90;96.60;;;;;;5032432;28;20049;-78
2022/04/21 04:54:16;;;;;;;15.25;7.85;;;9.90;96.50;;;;;;5032424;28;20049;-78
2022/04/21 04:56:44;;;;;;;18.50;9.02;;;9.90;96.60;;;;;;5032590;28;20049;-78
2022/04/21 04:59:11;;;;;;;17.23;8.95;;;9.90;96.40;;;;;;5032506;28;20480;-78
2022/04/21 05:01:43;;;;;;;17.33;8.70;;;9.90;96.60;;;;;;5032589;28;20056;-78
2022/04/21 05:04:10;;;;;;;16.77;8.23;;;10.00;96.50;;;;;;5032513;28;20049;-78
2022/04/21 05:06:40;;;;;;;14.82;8.50;;;10.10;96.60;;;;;;5032257;28;20083;-78
2022/04/21 05:09:09;;;;;;;12.77;8.07;;;10.10;96.80;;;;;;5032375;28;20061;-78
2022/04/21 05:11:35;;;;;;;14.50;8.32;;;10.10;96.70;;;;;;5032422;28;20084;-78
2022/04/21 05:14:01;;;;;;;14.38;8.35;;;10.20;96.70;;;;;;5032385;28;20056;-78
2022/04/21 05:16:28;;;;;;;16.00;8.45;;;10.20;96.80;;;;;;5015130;28;20558;-78
2022/04/21 05:18:54;;;;;;;12.98;8.23;;;10.30;96.80;;;;;;5015620;28;20391;-78
2022/04/21 05:21:20;;;;;;;14.52;8.57;;;10.30;96.80;;;;;;5032227;28;20064;-78
2022/04/21 05:23:49;;;;;;;13.13;7.75;;;10.30;96.90;;;;;;5031997;28;20168;-78
2022/04/21 05:26:16;;;;;;;17.77;9.13;;;10.40;97.00;;;;;;5032990;28;20084;-78
2022/04/21 05:28:45;;;;;;;11.95;8.40;;;10.50;96.80;;;;;;5034955;28;20050;-78
2022/04/21 05:31:11;;;;;;;17.10;9.48;;;10.60;96.90;;;;;;5036154;28;20042;-78
2022/04/21 05:33:38;;;;;;;14.98;8.43;;;10.60;96.90;;;;;;5035968;28;20045;-78
2022/04/21 05:36:05;;;;;;;15.73;9.02;;;10.50;96.90;;;;;;5036187;28;20061;-78
2022/04/21 05:38:32;;;;;;;17.95;9.38;;;10.50;97.10;;;;;;5035787;28;20058;-78
2022/04/21 05:40:58;;;;;;;14.15;8.73;;;10.50;97.10;;;;;;5019409;28;20045;-78
2022/04/21 05:43:42;;;;;;;16.23;8.85;;;10.40;97.10;;;;;;5035526;28;20045;-78
2022/04/21 05:46:10;;;;;;;14.93;8.10;;;10.50;97.10;;;;;;5035509;28;20045;-79
2022/04/21 05:48:37;;;;;;;13.73;8.15;;;10.70;97.20;;;;;;5035366;28;20534;-78
2022/04/21 05:51:04;;;;;;;18.33;9.05;;;10.70;97.10;;;;;;5035678;28;20092;-78
2022/04/21 05:53:34;;;;;;;14.68;8.27;;;10.90;97.00;;;;;;5035576;28;20046;-78
2022/04/21 05:56:00;;;;;;;15.73;8.95;;;11.00;96.90;;;;;;5035869;28;20128;-78
2022/04/21 05:58:26;;;;;;;15.95;9.07;;;11.00;96.90;;;;;;5035419;28;20041;-78
2022/04/21 06:00:52;;;;;;;20.02;8.93;;;11.10;97.10;;;;;;5035491;28;20045;-78
2022/04/21 06:03:18;;;;;;;13.43;8.13;;;11.20;97.10;;;;;;5035165;28;20389;-78
2022/04/21 06:05:44;;;;;;;15.27;8.35;;;11.20;97.10;;;;;;5035329;28;20050;-77
2022/04/21 06:08:09;;;;;;;15.18;8.27;;;11.20;97.00;;;;;;5035503;28;20053;-78
2022/04/21 06:10:36;;;;;;;14.13;8.45;;;11.30;97.00;;;;;;5035601;28;20481;-78
2022/04/21 06:13:03;;;;;;;15.20;8.10;;;11.40;96.80;;;;;;5034917;28;20095;-78
2022/04/21 06:15:32;;;;;;;13.68;7.97;;;11.50;96.90;;;;;;5034667;28;20437;-79
2022/04/21 06:17:59;;;;;;;14.95;7.50;;;11.70;96.90;;;;;;5034988;28;20061;-78
2022/04/21 06:20:28;;;;;;;14.27;7.03;;;11.80;96.60;;;;;;5034678;28;20132;-78
2022/04/21 06:22:55;;;;;;;13.43;6.50;;;11.70;96.50;;;;;;5018466;28;20048;-78
2022/04/21 06:25:23;;;;;;;13.27;7.35;;;11.70;96.50;;;;;;5034778;28;20037;-78
2022/04/21 06:27:50;;;;;;;13.07;7.57;;;11.70;96.50;;;;;;5034878;28;20049;-78
2022/04/21 06:30:16;;;;;;;9.13;5.90;;;11.80;96.40;;;;;;5034623;28;20056;-78
2022/04/21 06:32:41;;;;;;;12.45;6.57;;;11.70;96.40;;;;;;5034876;28;20060;-78
2022/04/21 06:35:08;;;;;;;9.57;5.88;;;11.80;96.40;;;;;;5034584;28;20042;-78
2022/04/21 06:37:35;;;;;;;9.55;6.07;;;11.90;96.00;;;;;;5034512;28;20405;-78
2022/04/21 06:40:02;;;;;;;10.63;6.45;;;12.00;96.00;;;;;;5034439;28;20045;-78
2022/04/21 06:42:27;;;;;;;10.68;6.25;;;12.10;95.90;;;;;;5034351;28;20056;-70
2022/04/21 06:50:21;;;;;;;9.57;6.10;;;12.30;95.70;;;;;;5033950;28;20053;-69
2022/04/21 06:52:48;;;;;;;10.07;5.72;;;12.30;95.60;;;;;;5018069;28;20369;-72
2022/04/21 06:55:13;;;;;;;9.10;4.93;;;12.10;95.40;;;;;;5035436;28;20041;-72
2022/04/21 06:57:39;;;;;;;10.45;5.47;;;12.10;95.50;;;;;;5034234;28;20045;-72
2022/04/21 07:00:05;;;;;;;10.55;5.30;;;12.30;95.40;;;;;;5035346;28;20061;-72
2022/04/21 07:02:32;;;;;;;7.63;4.65;;;12.40;95.20;;;;;;5034296;28;20492;-72
2022/04/21 07:05:04;;;;;;;7.93;5.18;;;12.30;95.40;;;;;;5035212;28;20060;-72
2022/04/21 07:07:30;;;;;;;9.25;5.22;;;12.50;95.40;;;;;;5017600;28;20061;-72
2022/04/21 07:10:00;;;;;;;8.00;5.10;;;12.70;95.30;;;;;;5035170;28;20044;-72
2022/04/21 07:12:31;;;;;;;6.60;4.50;;;12.80;95.40;;;;;;5034037;28;20144;-71
2022/04/21 07:14:58;;;;;;;10.95;4.70;;;12.90;95.00;;;;;;5035003;28;20049;-71
2022/04/21 07:17:24;;;;;;;8.07;4.20;;;12.90;94.90;;;;;;5034930;28;20053;-72
2022/04/21 07:19:49;;;;;;;8.43;3.50;;;13.00;94.90;;;;;;5033093;28;20492;-72
2022/04/21 07:22:15;;;;;;;9.50;4.25;;;13.20;94.90;;;;;;5034892;28;20042;-71
2022/04/21 07:24:41;;;;;;;8.27;3.20;;;13.20;94.90;;;;;;5034940;28;20049;-71
2022/04/21 07:27:07;;;;;;;8.15;3.20;;;13.20;94.30;;;;;;5033840;28;20049;-71
2022/04/21 07:29:34;;;;;;;6.28;3.20;;;13.10;94.10;;;;;;5033652;28;20046;-72
2022/04/21 07:32:00;;;;;;;5.55;3.10;;;13.20;94.10;;;;;;5033877;28;20404;-71
2022/04/21 07:34:25;;;;;;;7.25;3.25;;;13.30;94.30;;;;;;5017172;28;20133;-71
2022/04/21 07:36:51;;;;;;;6.47;3.25;;;13.40;94.10;;;;;;5034617;28;20089;-71
2022/04/21 07:39:18;;;;;;;5.07;3.20;;;13.40;94.00;;;;;;5039449;28;20073;-72
2022/04/21 07:41:44;;;;;;;4.75;3.05;;;13.40;93.60;;;;;;5038880;28;20050;-71
2022/04/21 07:44:10;;;;;;;4.75;3.13;;;13.30;93.80;;;;;;5034434;28;20060;-72
2022/04/21 07:46:36;;;;;;;7.22;3.15;;;13.50;93.90;;;;;;5033553;28;20085;-73
2022/04/21 07:51:46;;;;;;;10.27;3.25;;;13.60;93.80;;;;;;5032761;28;20080;-72
2022/04/21 07:54:12;;;;;;;8.20;2.67;;;13.70;93.90;;;;;;5033360;28;20050;-72
2022/04/21 07:56:38;;;;;;;4.05;2.38;;;13.70;93.60;;;;;;5033198;28;20045;-72
2022/04/21 07:59:04;;;;;;;3.60;2.33;;;14.00;93.90;;;;;;5032826;28;20049;-72
2022/04/21 08:01:30;;;;;;;6.25;2.88;;;14.00;93.30;;;;;;5034221;28;20049;-72
2022/04/21 08:04:01;;;;;;;4.65;3.00;;;14.10;93.30;;;;;;5032762;28;20053;-72
2022/04/21 08:06:36;;;;;;;7.57;3.20;;;14.10;93.40;;;;;;5032772;28;20060;-72
2022/04/21 08:09:02;;;;;;;4.07;2.55;;;14.30;93.50;;;;;;5032939;28;20477;-72
2022/04/21 08:11:28;;;;;;;4.57;2.83;;;14.30;93.30;;;;;;5032512;28;20056;-70
2022/04/21 08:13:55;;;;;;;7.22;2.85;;;14.20;93.10;;;;;;5033863;28;20049;-73
2022/04/21 08:16:21;;;;;;;4.38;2.60;;;14.20;93.30;;;;;;5032105;28;20390;-71
2022/04/21 08:18:52;;;;;;;5.22;2.90;;;14.20;93.40;;;;;;5032389;28;20072;-71
2022/04/21 08:21:18;;;;;;;4.75;2.75;;;14.40;93.60;;;;;;5032724;28;20103;-74
2022/04/21 08:23:44;;;;;;;7.55;2.83;;;14.60;93.40;;;;;;5032372;28;20045;-72
2022/04/21 08:34:22;;;;;;;4.60;2.60;;;15.00;92.80;;;;;;5032856;28;20065;-71
2022/04/21 08:36:47;;;;;;;6.22;2.65;;;15.00;93.30;;;;;;5033541;28;20041;-71
2022/04/21 08:39:13;;;;;;;4.88;2.78;;;15.20;93.40;;;;;;5032561;28;20059;-71
2022/04/21 08:41:47;;;;;;;4.68;2.88;;;15.50;93.30;;;;;;5032331;28;20096;-78
2022/04/21 08:44:18;;;;;;;5.75;2.85;;;15.50;93.10;;;;;;5032494;28;20045;-72
2022/04/21 08:46:46;;;;;;;5.95;3.25;;;15.70;93.10;;;;;;5032604;28;20080;-72
2022/04/21 08:49:15;;;;;;;4.38;2.58;;;15.60;92.80;;;;;;5033215;28;20053;-74
2022/04/21 08:51:41;;;;;;;5.10;3.13;;;15.70;93.20;;;;;;5032101;28;20066;-71
2022/04/21 08:54:07;;;;;;;5.93;3.55;;;15.70;93.10;;;;;;5032388;28;20041;-71
2022/04/21 08:56:33;;;;;;;6.28;3.30;;;15.70;92.90;;;;;;5033512;28;20481;-72
2022/04/21 08:58:58;;;;;;;6.43;3.35;;;15.70;93.10;;;;;;5032484;28;20469;-71
2022/04/21 09:01:25;;;;;;;5.15;3.17;;;15.90;93.00;;;;;;5033232;28;20300;-70
2022/04/21 09:03:51;;;;;;;5.95;3.50;;;16.20;93.00;;;;;;5036428;28;20400;-71
2022/04/21 09:06:16;;;;;;;6.05;3.15;;;16.20;93.10;;;;;;5036463;28;20049;-87
2022/04/21 09:08:42;;;;;;;4.80;2.92;;;16.50;93.10;;;;;;5036504;28;20048;-73
2022/04/21 09:11:11;;;;;;;5.35;3.10;;;16.40;93.00;;;;;;5052946;28;20049;-73
2022/04/21 09:13:41;;;;;;;4.85;3.10;;;16.30;93.00;;;;;;5037055;28;20614;-72
2022/04/21 09:16:09;;;;;;;5.75;3.45;;;16.20;92.60;;;;;;5035638;28;20065;-73
2022/04/21 09:18:41;;;;;;;6.70;3.45;;;16.10;92.60;;;;;;5036764;28;20053;-73
2022/04/21 09:21:11;;;;;;;7.20;3.13;;;16.10;92.60;;;;;;5036255;28;20128;-72
2022/04/21 09:23:38;;;;;;;6.22;2.85;;;16.20;92.90;;;;;;5035988;28;20206;-72
2022/04/21 09:26:21;;;;;;;5.30;3.00;;;16.30;92.60;;;;;;5037116;28;20057;-71
2022/04/21 09:28:55;;;;;;;4.13;2.90;;;16.40;92.70;;;;;;5035931;28;20046;-72
2022/04/21 09:31:22;;;;;;;5.05;3.10;;;16.50;92.60;;;;;;5038444;28;20049;-71
2022/04/21 09:33:48;;;;;;;4.60;3.30;;;16.40;92.40;;;;;;5036954;28;20050;-72
2022/04/21 09:36:14;;;;;;;6.22;2.83;;;16.50;92.80;;;;;;5035765;28;20052;-73
2022/04/21 09:38:40;;;;;;;5.88;2.55;;;16.60;92.80;;;;;;5036583;28;20053;-72
2022/04/21 09:41:07;;;;;;;5.40;2.90;;;16.60;92.90;;;;;;5035916;28;20049;-72
2022/04/21 09:43:35;;;;;;;8.10;3.08;;;16.80;93.20;;;;;;5036826;28;20045;-70
2022/04/21 09:46:15;;;;;;;6.63;2.95;;;17.10;92.60;;;;;;5035637;28;20053;-71
2022/04/21 09:48:43;;;;;;;5.20;3.22;;;17.20;92.60;;;;;;5035489;28;20463;-71
2022/04/21 09:51:17;;;;;;;5.63;3.03;;;17.20;92.40;;;;;;5036651;28;20049;-71
2022/04/21 09:53:57;;;;;;;7.53;3.30;;;17.30;92.40;;;;;;5035466;28;20477;-71
2022/04/21 09:56:36;;;;;;;7.15;3.50;;;17.50;92.50;;;;;;5035602;28;20049;-71
2022/04/21 09:59:11;;;;;;;6.60;3.20;;;17.50;92.80;;;;;;5035351;28;20150;-71
2022/04/21 10:01:41;;;;;;;6.05;2.78;;;17.80;92.80;;;;;;5035681;28;20095;-71
2022/04/21 10:04:08;;;;;;;5.03;2.70;;;18.00;92.90;;;;;;5036726;28;20052;-71
2022/04/21 10:06:37;;;;;;;3.80;2.70;;;17.90;92.40;;;;;;5035137;28;20049;-71
2022/04/21 10:09:03;;;;;;;4.63;3.00;;;18.10;92.30;;;;;;5036342;28;20053;-70
2022/04/21 10:11:29;;;;;;;12.45;2.97;;;18.00;92.00;;;;;;5036223;28;20048;-71
2022/04/21 10:13:56;;;;;;;6.22;2.83;;;18.10;92.50;;;;;;5035709;28;20053;-71
2022/04/21 10:16:23;;;;;;;6.35;2.72;;;18.40;92.30;;;;;;5035762;28;20089;-71
2022/04/21 10:18:51;;;;;;;5.57;3.10;;;18.60;92.40;;;;;;5035697;28;20527;-71
2022/04/21 10:21:25;;;;;;;6.45;2.60;;;18.60;92.10;;;;;;5035976;28;20104;-71
2022/04/21 10:23:51;;;;;;;5.38;2.45;;;18.80;92.10;;;;;;5034999;28;20094;-71
2022/04/21 10:26:40;;;;;;;4.10;2.70;;;18.60;91.70;;;;;;5034854;28;20491;-71
2022/04/21 10:29:23;;;;;;;5.00;2.50;;;18.70;92.10;;;;;;5036068;28;20049;-70
2022/04/21 10:32:03;;;;;;;4.88;2.40;;;18.80;92.10;;;;;;5019137;28;20074;-72
2022/04/21 10:34:38;;;;;;;7.60;2.78;;;19.00;91.60;;;;;;5035896;28;20049;-70
2022/04/21 10:37:17;;;;;;;7.87;2.87;;;19.10;91.30;;;;;;5035904;28;20063;-71
2022/04/21 10:40:14;;;;;;;4.00;2.53;;;19.10;91.40;;;;;;5035961;28;20045;-71
2022/04/21 10:42:52;;;;;;;3.90;2.13;;;19.20;91.30;;;;;;5035410;28;20396;-71
2022/04/21 10:45:33;;;;;;;8.63;2.63;;;19.20;91.10;;;;;;5035814;28;20400;-69
2022/04/21 10:48:11;;;;;;;4.65;2.47;;;19.20;91.40;;;;;;5035646;28;20053;-71
2022/04/21 10:50:42;;;;;;;3.97;2.40;;;19.00;91.50;;;;;;5034143;28;20057;-71
2022/04/21 10:58:42;;;;;;;4.38;2.33;;;19.70;91.70;;;;;;5036545;28;20103;-72
2022/04/21 11:01:11;;;;;;;3.80;2.72;;;20.00;91.20;;;;;;5035364;28;20119;-71
2022/04/21 11:03:39;;;;;;;7.32;3.22;;;20.00;91.10;;;;;;5035581;28;20046;-71
2022/04/21 11:06:15;;;;;;;3.35;2.53;;;20.10;91.20;;;;;;5035336;28;20049;-71
2022/04/21 11:08:41;;;;;;;7.78;2.70;;;20.30;90.80;;;;;;5034964;28;20476;-71
2022/04/21 11:11:08;;;;;;;4.97;2.38;;;20.00;91.00;;;;;;5035142;28;20049;-73
2022/04/21 11:13:51;;;;;;;5.25;2.35;;;19.80;90.60;;;;;;5033977;28;20459;-74
2022/04/21 11:16:42;;;;;;;4.40;2.40;;;20.10;91.00;;;;;;5033573;28;20057;-77
2022/04/21 11:19:37;;;;;;;5.10;2.22;;;20.00;90.40;;;;;;5033643;28;20060;-74
2022/04/21 11:22:05;;;;;;;3.40;2.50;;;20.30;90.60;;;;;;5025878;28;20141;-74
2022/04/21 11:24:56;;;;;;;4.93;2.40;;;20.40;90.90;;;;;;5033500;28;20060;-74
2022/04/21 11:27:23;;;;;;;3.72;2.30;;;20.30;90.60;;;;;;5034907;28;20049;-71
2022/04/21 11:29:49;;;;;;;6.10;2.33;;;20.30;90.50;;;;;;5035548;28;20419;-71
2022/04/21 11:32:18;;;;;;;4.70;2.30;;;20.60;90.50;;;;;;5038756;28;20055;-70
2022/04/21 11:35:10;;;;;;;5.30;2.30;;;20.70;90.70;;;;;;5033626;28;20381;-71
2022/04/21 11:37:49;;;;;;;4.03;2.15;;;20.80;90.80;;;;;;5029810;28;20069;-70
2022/04/21 11:40:19;;;;;;;5.40;2.17;;;20.80;90.60;;;;;;5034663;28;20056;-70
2022/04/21 11:42:46;;;;;;;8.35;2.40;;;20.90;90.50;;;;;;5033417;28;20107;-69
2022/04/21 11:45:16;;;;;;;5.63;2.20;;;21.20;90.30;;;;;;5033627;28;20096;-70
2022/04/21 11:47:42;;;;;;;6.68;2.15;;;21.20;90.40;;;;;;5034423;28;20045;-69
2022/04/21 11:50:08;;;;;;;5.72;2.10;;;21.50;90.20;;;;;;5034293;28;20132;-70
2022/04/21 11:52:33;;;;;;;3.17;2.10;;;21.80;90.20;;;;;;5034413;28;20124;-70
2022/04/21 11:55:04;;;;;;;3.83;1.92;;;21.60;90.10;;;;;;5034334;28;20045;-69
2022/04/21 11:57:43;;;;;;;2.47;1.70;;;21.70;90.20;;;;;;5034132;28;20045;-69
2022/04/21 12:00:10;;;;;;;3.15;2.28;;;21.80;89.60;;;;;;5034568;28;20099;-69
2022/04/21 12:08:10;;;;;;;4.30;2.30;;;21.40;90.40;;;;;;5033369;28;20110;-90
2022/04/21 12:10:36;;;;;;;4.68;2.45;;;20.60;90.00;;;;;;5033410;28;20041;-86
2022/04/21 12:13:03;;;;;;;6.05;2.30;;;20.40;90.10;;;;;;5033799;28;20052;-89
2022/04/21 12:15:31;;;;;;;36.30;3.63;;;20.20;90.40;;;;;;5033265;28;20153;-88
2022/04/21 12:18:04;;;;;;;5.18;2.33;;;20.10;90.60;;;;;;5033521;28;20049;-89
2022/04/21 12:20:30;;;;;;;8.73;2.75;;;20.20;90.50;;;;;;5033121;28;20041;-87
2022/04/21 12:22:56;;;;;;;8.32;2.67;;;20.20;90.40;;;;;;5033180;28;20045;-89
2022/04/21 12:25:32;;;;;;;5.70;2.20;;;19.70;90.30;;;;;;5033176;28;20063;-71
2022/04/21 12:28:05;;;;;;;4.03;2.47;;;20.10;90.20;;;;;;5033848;28;20041;-71
2022/04/21 12:30:31;;;;;;;3.42;2.17;;;20.40;90.10;;;;;;5032574;28;20373;-73
2022/04/21 12:32:57;;;;;;;5.78;2.72;;;20.80;90.30;;;;;;5033740;28;20048;-73
2022/04/21 12:35:44;;;;;;;4.15;2.67;;;21.10;89.70;;;;;;5032590;28;20119;-72
2022/04/21 12:40:55;;;;;;;5.55;2.70;;;21.50;90.30;;;;;;5032787;28;20380;-72
2022/04/21 12:43:22;;;;;;;5.07;2.45;;;21.80;90.00;;;;;;5032336;28;20065;-72
2022/04/21 12:45:48;;;;;;;4.55;2.58;;;21.90;89.20;;;;;;5032933;28;20053;-72
2022/04/21 12:48:21;;;;;;;6.95;2.22;;;21.70;90.40;;;;;;5032513;28;20098;-72
2022/04/21 12:50:47;;;;;;;6.05;2.85;;;21.60;90.70;;;;;;5031989;28;20545;-70
2022/04/21 12:53:34;;;;;;;4.55;2.80;;;21.80;90.40;;;;;;5033683;28;20178;-87
2022/04/21 12:56:10;;;;;;;4.63;2.80;;;20.90;90.80;;;;;;5033058;28;20045;-71
2022/04/21 12:58:36;;;;;;;6.22;2.90;;;20.70;90.50;;;;;;5033505;28;20049;-86
2022/04/21 13:01:05;;;;;;;4.63;2.75;;;21.10;90.90;;;;;;5032567;28;20042;-70
2022/04/21 13:03:32;;;;;;;7.13;3.10;;;20.10;90.30;;;;;;5033171;28;20124;-72
2022/04/21 13:05:59;;;;;;;6.78;2.70;;;20.30;90.00;;;;;;5033316;28;20052;-73
2022/04/21 13:08:27;;;;;;;4.53;3.35;;;20.80;90.40;;;;;;5033579;28;20059;-72
2022/04/21 13:10:57;;;;;;;6.70;3.60;;;21.30;89.80;;;;;;5032299;28;20535;-72
2022/04/21 13:13:24;;;;;;;7.13;3.33;;;21.80;90.10;;;;;;5033342;28;20045;-72
2022/04/21 13:15:50;;;;;;;3.63;2.70;;;22.00;89.90;;;;;;5033464;28;20058;-72
2022/04/21 13:18:16;;;;;;;9.02;2.97;;;22.40;90.20;;;;;;5032141;28;20076;-72
2022/04/21 13:23:28;;;;;;;6.38;3.10;;;22.60;89.50;;;;;;5033143;28;20400;-72
2022/04/21 13:25:54;;;;;;;5.25;2.58;;;22.70;89.00;;;;;;5032778;28;20042;-83
2022/04/21 13:28:20;;;;;;;3.42;2.53;;;22.20;89.30;;;;;;5015646;28;20045;-81
2022/04/21 13:30:46;;;;;;;3.75;3.03;;;20.90;88.90;;;;;;5032361;28;20049;-88
2022/04/21 13:33:23;;;;;;;3.95;2.95;;;20.40;89.20;;;;;;5032746;28;20132;-88
2022/04/21 13:35:50;;;;;;;4.85;2.63;;;20.30;90.00;;;;;;5017952;28;20136;-87
2022/04/21 13:38:17;;;;;;;6.68;3.38;;;19.80;90.10;;;;;;5032115;28;20071;-87
2022/04/21 13:40:46;;;;;;;6.75;3.00;;;19.60;88.70;;;;;;5015778;28;20103;-71
2022/04/21 13:43:12;;;;;;;5.63;3.22;;;20.00;89.60;;;;;;5035546;28;20045;-74